Impacts TAF Board INFO
FOR SITUATIONAL AWARENESS. NOT TO BE USED FOR FLIGHT PLANNING PURPOSES.
IDs:

KTCL - Tuscaloosa Rgnl, AL, US

Issued at 2335 UTC 26 Apr 2018
Updated at 0037 UTC 27 Apr 2018
Potential Impact None Slight Moderate High
Time2353Z 27/01Z 27/02Z 27/03Z 27/04Z 27/05Z 27/06Z 27/07Z 27/08Z 27/09Z 27/10Z 27/11Z 27/12Z 27/13Z>>
Type OBS PRVL PRVL PRVL PRVL PRVL PRVL PRVL PRVL PRVL PRVL PRVL PRVL PRVL
VIS 10 >6 >6 >6 >6 >6 >6 >6 >6 >6 >6 >6 >6 >6
CIG 37 35 35 35 15 15 15 15 15 15 15 15 15 15
Cover OVC BKN BKN BKN OVC OVC OVC OVC OVC OVC OVC OVC OVC OVC
FltCat VFR VFR VFR VFR MVFR MVFR MVFR MVFR MVFR MVFR MVFR MVFR MVFR MVFR
WX -- -- -- -- -- -- -- -- -- -- -- -- -- --
WDir 270 260 260 260 330 330 330 330 330 330 330 330 330 330
WSpd 3 8 8 8 3 3 3 3 3 3 3 3 3 3
WGst -- -- -- -- -- -- -- -- -- -- -- -- -- --

Raw TAF
KTCL 262335Z 2700/2724 26008KT P6SM SCT028 BKN035 BKN045
  FM270400 33003KT P6SM OVC015
  FM271500 30006KT P6SM SCT030


Raw METAR
KTCL 262353Z 27003KT 10SM OVC037 17/13 A2985 RMK AO2 SLP104 60000 T01670128 10206 20167 53009
KTCL 262253Z 26008KT 10SM SCT028 BKN033 BKN044 17/12 A2984 RMK AO2 SLP102 T01720122
KTCL 262153Z 26006KT 10SM FEW037 BKN044 OVC060 17/12 A2982 RMK AO2 RAB05E16 SLP097 P0000 T01720122

METAR Board
Radar Display
Forecast Discussion

FOR SITUATIONAL AWARENESS. NOT TO BE USED FOR FLIGHT PLANNING PURPOSES.